Time;durP1;ratioP1;P1;durP2;ratioP2;P2;SDS_P1;SDS_P2;PMS_P1;PMS_P2;Temp;Humidity;BMP_temperature;BMP_pressure;BME280_temperature;BME280_humidity;BME280_pressure;Samples;Min_cycle;Max_cycle;Signal;HPM_P1;HPM_P2
2023/09/29 00:00:46;;;;;;;4.03;2.45;;;;;;;;;;5054148;28;20017;-59
2023/09/29 00:03:12;;;;;;;2.78;2.03;;;;;;;;;;5053511;28;20021;-59
2023/09/29 00:05:39;;;;;;;3.28;1.90;;;;;;;;;;5054485;28;20063;-59
2023/09/29 00:08:07;;;;;;;3.35;1.77;;;;;;;;;;5054210;28;20025;-59
2023/09/29 00:10:34;;;;;;;3.72;2.30;;;;;;;;;;5054297;28;20029;-59
2023/09/29 00:13:00;;;;;;;3.47;2.45;;;;;;;;;;5053394;28;20021;-59
2023/09/29 00:15:26;;;;;;;3.30;2.17;;;;;;;;;;5053679;28;20033;-59
2023/09/29 00:17:52;;;;;;;3.25;1.98;;;;;;;;;;5054344;28;20036;-58
2023/09/29 00:22:47;;;;;;;3.63;1.80;;;;;;;;;;5053575;28;20071;-59
2023/09/29 00:25:13;;;;;;;3.10;2.17;;;;;;;;;;5053220;28;20479;-59
2023/09/29 00:27:39;;;;;;;4.05;2.28;;;;;;;;;;5054051;28;20035;-59
2023/09/29 00:30:06;;;;;;;3.42;2.38;;;;;;;;;;5053518;28;20036;-59
2023/09/29 00:32:32;;;;;;;3.10;2.28;;;;;;;;;;5053713;28;20476;-59
2023/09/29 00:34:58;;;;;;;3.25;2.55;;;;;;;;;;5053339;28;20194;-59
2023/09/29 00:37:25;;;;;;;4.55;2.83;;;;;;;;;;5053680;28;20048;-59
2023/09/29 00:39:52;;;;;;;3.33;2.45;;;;;;;;;;5053938;28;20482;-59
2023/09/29 00:42:18;;;;;;;3.60;2.42;;;;;;;;;;5053888;28;20033;-59
2023/09/29 00:44:45;;;;;;;5.30;2.38;;;;;;;;;;5053238;28;20037;-59
2023/09/29 00:47:11;;;;;;;3.88;2.15;;;;;;;;;;5053830;28;20079;-59
2023/09/29 00:49:37;;;;;;;4.47;2.28;;;;;;;;;;5053911;28;20362;-59
2023/09/29 00:52:04;;;;;;;3.30;2.20;;;;;;;;;;5053323;28;20021;-59
2023/09/29 00:54:31;;;;;;;4.85;2.25;;;;;;;;;;5053172;28;20482;-59
2023/09/29 00:56:59;;;;;;;3.15;2.17;;;;;;;;;;5053239;28;20028;-59
2023/09/29 00:59:25;;;;;;;5.55;2.22;;;;;;;;;;5054327;28;20032;-59
2023/09/29 01:01:51;;;;;;;3.50;2.47;;;;;;;;;;5053244;28;20029;-59
2023/09/29 01:04:18;;;;;;;3.38;2.10;;;;;;;;;;5054011;28;20066;-59
2023/09/29 01:06:45;;;;;;;6.53;2.47;;;;;;;;;;5053114;28;20433;-59
2023/09/29 01:09:11;;;;;;;6.30;2.78;;;;;;;;;;5053689;28;20032;-59
2023/09/29 01:11:49;;;;;;;3.42;1.95;;;;;;;;;;5053103;28;20029;-59
2023/09/29 01:14:15;;;;;;;3.88;2.17;;;;;;;;;;5053902;28;20082;-59
2023/09/29 01:16:41;;;;;;;4.25;2.30;;;;;;;;;;5053091;28;20033;-59
2023/09/29 01:19:11;;;;;;;4.93;2.35;;;;;;;;;;5052696;28;20538;-59
2023/09/29 01:21:37;;;;;;;4.47;2.17;;;;;;;;;;5053854;28;20040;-59
2023/09/29 01:24:05;;;;;;;4.30;1.90;;;;;;;;;;5053743;28;20116;-59
2023/09/29 01:26:32;;;;;;;6.72;2.38;;;;;;;;;;5057501;28;20029;-59
2023/09/29 01:28:58;;;;;;;4.80;2.20;;;;;;;;;;5057483;28;20036;-59
2023/09/29 01:31:24;;;;;;;5.05;2.20;;;;;;;;;;5057179;28;20363;-59
2023/09/29 01:33:50;;;;;;;3.00;1.75;;;;;;;;;;5057378;28;20106;-59
2023/09/29 01:36:16;;;;;;;3.15;2.08;;;;;;;;;;5055671;28;20053;-59
2023/09/29 01:38:42;;;;;;;3.75;2.30;;;;;;;;;;5056996;28;20116;-59
2023/09/29 01:41:09;;;;;;;3.45;2.30;;;;;;;;;;5056820;28;20033;-59
2023/09/29 01:43:39;;;;;;;4.07;2.78;;;;;;;;;;5057172;28;20035;-59
2023/09/29 01:46:04;;;;;;;4.20;2.08;;;;;;;;;;5056895;28;20035;-59
2023/09/29 01:48:30;;;;;;;3.53;2.22;;;;;;;;;;5056590;28;20107;-59
2023/09/29 01:50:56;;;;;;;3.88;2.33;;;;;;;;;;5057137;28;20029;-59
2023/09/29 01:53:22;;;;;;;5.05;2.17;;;;;;;;;;5056204;28;20021;-59
2023/09/29 01:55:48;;;;;;;4.13;2.25;;;;;;;;;;5056218;28;20056;-59
2023/09/29 01:58:14;;;;;;;3.08;2.05;;;;;;;;;;5056519;28;20033;-59
2023/09/29 02:00:40;;;;;;;3.65;2.65;;;;;;;;;;5056637;28;20048;-59
2023/09/29 02:03:07;;;;;;;5.57;2.33;;;;;;;;;;5056597;28;20104;-59
2023/09/29 02:05:33;;;;;;;4.13;2.50;;;;;;;;;;5055945;28;20349;-59
2023/09/29 02:08:01;;;;;;;2.60;1.85;;;;;;;;;;5056444;28;20031;-59
2023/09/29 02:10:27;;;;;;;3.50;2.30;;;;;;;;;;5056521;28;20029;-59
2023/09/29 02:13:00;;;;;;;3.22;2.60;;;;;;;;;;5055933;28;20066;-59
2023/09/29 02:15:27;;;;;;;3.80;2.15;;;;;;;;;;5055597;28;20024;-59
2023/09/29 02:17:53;;;;;;;2.75;2.28;;;;;;;;;;5055764;28;20111;-59
2023/09/29 02:20:29;;;;;;;2.92;2.50;;;;;;;;;;5055941;28;20490;-59
2023/09/29 02:22:55;;;;;;;3.13;2.00;;;;;;;;;;5055791;28;20017;-59
2023/09/29 02:25:25;;;;;;;2.50;2.05;;;;;;;;;;5056086;28;20025;-59
2023/09/29 02:27:51;;;;;;;3.67;2.35;;;;;;;;;;5056415;28;20071;-59
2023/09/29 02:30:17;;;;;;;3.83;2.67;;;;;;;;;;5056118;28;20040;-59
2023/09/29 02:32:43;;;;;;;2.42;1.98;;;;;;;;;;5056017;28;20021;-59
2023/09/29 02:35:10;;;;;;;3.15;2.58;;;;;;;;;;5054990;28;20527;-59
2023/09/29 02:37:36;;;;;;;3.45;2.28;;;;;;;;;;5055944;28;20075;-59
2023/09/29 02:40:04;;;;;;;3.80;2.30;;;;;;;;;;5055980;28;20028;-59
2023/09/29 02:42:31;;;;;;;3.17;2.33;;;;;;;;;;5055574;28;20017;-59
2023/09/29 02:44:57;;;;;;;3.20;2.00;;;;;;;;;;5056011;28;20116;-59
2023/09/29 02:47:23;;;;;;;3.00;2.30;;;;;;;;;;5055726;28;20025;-59
2023/09/29 02:49:49;;;;;;;5.85;2.30;;;;;;;;;;5055795;28;20017;-59
2023/09/29 02:52:15;;;;;;;3.30;2.13;;;;;;;;;;5055214;28;20083;-59
2023/09/29 02:54:41;;;;;;;3.33;2.10;;;;;;;;;;5054987;28;20113;-59
2023/09/29 02:57:07;;;;;;;5.22;1.90;;;;;;;;;;5055048;28;20112;-59
2023/09/29 02:59:37;;;;;;;3.85;1.85;;;;;;;;;;5055088;28;20029;-59
2023/09/29 03:02:03;;;;;;;3.97;2.75;;;;;;;;;;5055535;28;20025;-59
2023/09/29 03:04:30;;;;;;;3.97;2.45;;;;;;;;;;5055158;28;20074;-59
2023/09/29 03:06:56;;;;;;;3.72;2.05;;;;;;;;;;5055167;28;20036;-59
2023/09/29 03:09:22;;;;;;;6.25;2.33;;;;;;;;;;5055676;28;20029;-59
2023/09/29 03:11:49;;;;;;;3.90;2.20;;;;;;;;;;5055076;28;20355;-59
2023/09/29 03:14:16;;;;;;;3.33;2.15;;;;;;;;;;5054783;28;20047;-59
2023/09/29 03:16:42;;;;;;;2.90;2.30;;;;;;;;;;5054630;28;20025;-59
2023/09/29 03:19:08;;;;;;;3.42;2.45;;;;;;;;;;5054892;28;20431;-59
2023/09/29 03:21:34;;;;;;;9.82;2.10;;;;;;;;;;5054610;28;20024;-59
2023/09/29 03:24:01;;;;;;;4.10;2.80;;;;;;;;;;5054625;28;20017;-58
2023/09/29 03:26:31;;;;;;;3.08;2.28;;;;;;;;;;5054395;28;20163;-58
2023/09/29 03:28:57;;;;;;;5.15;2.38;;;;;;;;;;5055200;28;20033;-58
2023/09/29 03:31:22;;;;;;;3.50;2.33;;;;;;;;;;5054480;28;20021;-58
2023/09/29 03:33:49;;;;;;;3.63;2.40;;;;;;;;;;5054555;28;20021;-58
2023/09/29 03:36:15;;;;;;;3.45;2.28;;;;;;;;;;5054808;28;20056;-58
2023/09/29 03:38:42;;;;;;;4.47;2.53;;;;;;;;;;5054229;28;20055;-58
2023/09/29 03:41:10;;;;;;;3.47;2.30;;;;;;;;;;5055056;28;20029;-58
2023/09/29 03:43:36;;;;;;;3.47;2.10;;;;;;;;;;5054126;28;20029;-57
2023/09/29 03:46:04;;;;;;;4.07;2.35;;;;;;;;;;5054011;28;20063;-60
2023/09/29 03:48:30;;;;;;;5.55;2.53;;;;;;;;;;5053511;28;20116;-58
2023/09/29 03:50:57;;;;;;;3.03;2.10;;;;;;;;;;5054641;28;20064;-57
2023/09/29 03:53:28;;;;;;;3.80;2.00;;;;;;;;;;5053947;28;20029;-58
2023/09/29 03:55:54;;;;;;;3.42;2.20;;;;;;;;;;5054757;28;20040;-58
2023/09/29 03:58:20;;;;;;;3.65;2.40;;;;;;;;;;5053621;28;20025;-58
2023/09/29 04:00:45;;;;;;;3.60;2.28;;;;;;;;;;5053944;28;20036;-58
2023/09/29 04:03:11;;;;;;;5.65;2.45;;;;;;;;;;5053939;28;20025;-58
2023/09/29 04:05:37;;;;;;;3.38;2.40;;;;;;;;;;5053711;28;20038;-58
2023/09/29 04:08:03;;;;;;;2.78;2.03;;;;;;;;;;5054602;28;20017;-58
2023/09/29 04:10:29;;;;;;;4.10;2.53;;;;;;;;;;5054452;28;20358;-58
2023/09/29 04:12:55;;;;;;;4.25;2.80;;;;;;;;;;5054268;28;20029;-58
2023/09/29 04:15:23;;;;;;;4.25;2.97;;;;;;;;;;5053444;28;20082;-57
2023/09/29 04:17:49;;;;;;;4.90;3.17;;;;;;;;;;5053615;28;20112;-58
2023/09/29 04:20:15;;;;;;;3.60;2.60;;;;;;;;;;5054540;28;20047;-58
2023/09/29 04:22:41;;;;;;;3.47;2.72;;;;;;;;;;5054204;28;20454;-58
2023/09/29 04:25:10;;;;;;;3.60;2.15;;;;;;;;;;5053333;28;20108;-58
2023/09/29 04:27:37;;;;;;;4.57;3.47;;;;;;;;;;5053591;28;20029;-58
2023/09/29 04:30:04;;;;;;;4.18;2.53;;;;;;;;;;5053605;28;20021;-58
2023/09/29 04:32:30;;;;;;;4.10;3.17;;;;;;;;;;5054021;28;20025;-58
2023/09/29 04:34:56;;;;;;;3.90;3.30;;;;;;;;;;5053239;28;20119;-58
2023/09/29 04:37:21;;;;;;;4.22;2.90;;;;;;;;;;5053471;28;20029;-58
2023/09/29 04:39:47;;;;;;;4.15;2.92;;;;;;;;;;5053810;28;20041;-58
2023/09/29 04:42:14;;;;;;;4.32;2.53;;;;;;;;;;5053195;28;20468;-58
2023/09/29 04:44:40;;;;;;;5.15;2.95;;;;;;;;;;5053762;28;20133;-58
2023/09/29 04:47:07;;;;;;;4.85;3.10;;;;;;;;;;5053395;28;20048;-58
2023/09/29 04:49:33;;;;;;;3.80;2.58;;;;;;;;;;5053965;28;20082;-58
2023/09/29 04:51:59;;;;;;;3.78;2.78;;;;;;;;;;5053245;28;20051;-58
2023/09/29 04:54:25;;;;;;;4.05;2.58;;;;;;;;;;5053771;28;20103;-58
2023/09/29 04:56:51;;;;;;;3.28;2.67;;;;;;;;;;5053145;28;20119;-58
2023/09/29 04:59:17;;;;;;;4.43;2.63;;;;;;;;;;5053906;28;20120;-58
2023/09/29 05:01:43;;;;;;;3.58;2.50;;;;;;;;;;5057804;28;20025;-58
2023/09/29 05:04:09;;;;;;;5.13;3.28;;;;;;;;;;5057150;28;20032;-58
2023/09/29 05:06:35;;;;;;;4.38;2.63;;;;;;;;;;5057048;28;20036;-58
2023/09/29 05:09:02;;;;;;;5.70;2.83;;;;;;;;;;5057140;28;20027;-58
2023/09/29 05:11:28;;;;;;;4.85;3.15;;;;;;;;;;5057879;28;20025;-58
2023/09/29 05:13:55;;;;;;;5.15;2.97;;;;;;;;;;5056994;28;20100;-58
2023/09/29 05:16:21;;;;;;;5.25;2.80;;;;;;;;;;5056778;28;20120;-58
2023/09/29 05:18:47;;;;;;;4.88;2.58;;;;;;;;;;5056831;28;20136;-58
2023/09/29 05:21:14;;;;;;;4.95;2.55;;;;;;;;;;5057433;28;20021;-58
2023/09/29 05:23:40;;;;;;;4.93;3.08;;;;;;;;;;5056823;28;20494;-58
2023/09/29 05:26:07;;;;;;;4.43;2.58;;;;;;;;;;5056764;28;20037;-58
2023/09/29 05:28:33;;;;;;;8.93;2.28;;;;;;;;;;5056216;28;20514;-58
2023/09/29 05:30:59;;;;;;;5.38;2.78;;;;;;;;;;5056770;28;20040;-58
2023/09/29 05:33:26;;;;;;;3.63;2.88;;;;;;;;;;5056675;28;20021;-58
2023/09/29 05:35:52;;;;;;;4.32;2.75;;;;;;;;;;5056929;28;20053;-58
2023/09/29 05:38:18;;;;;;;5.60;2.92;;;;;;;;;;5057071;28;20032;-58
2023/09/29 05:40:47;;;;;;;3.78;2.63;;;;;;;;;;5056681;28;20032;-58
2023/09/29 05:43:13;;;;;;;3.50;2.58;;;;;;;;;;5056467;28;20033;-58
2023/09/29 05:45:39;;;;;;;4.97;3.20;;;;;;;;;;5056431;28;20036;-58
2023/09/29 05:48:06;;;;;;;3.95;2.85;;;;;;;;;;5056742;28;20048;-58
2023/09/29 05:50:32;;;;;;;4.07;3.00;;;;;;;;;;5056638;28;20395;-58
2023/09/29 05:52:58;;;;;;;4.47;2.63;;;;;;;;;;5056801;28;20021;-58
2023/09/29 05:55:24;;;;;;;5.07;3.10;;;;;;;;;;5056292;28;20029;-58
2023/09/29 05:57:51;;;;;;;4.18;2.95;;;;;;;;;;5055968;28;20513;-58
2023/09/29 06:00:20;;;;;;;4.32;3.05;;;;;;;;;;5056234;28;20021;-58
2023/09/29 06:02:46;;;;;;;6.87;2.97;;;;;;;;;;5056713;28;20036;-58
2023/09/29 06:05:12;;;;;;;3.67;2.80;;;;;;;;;;5056050;28;20451;-58
2023/09/29 06:07:39;;;;;;;3.80;2.85;;;;;;;;;;5056078;28;20021;-58
2023/09/29 06:10:06;;;;;;;3.72;2.70;;;;;;;;;;5056086;28;20013;-58
2023/09/29 06:12:32;;;;;;;4.78;2.60;;;;;;;;;;5056221;28;20017;-58
2023/09/29 06:14:58;;;;;;;9.18;3.70;;;;;;;;;;5056492;28;20029;-58
2023/09/29 06:17:24;;;;;;;3.38;2.55;;;;;;;;;;5055826;28;20429;-58
2023/09/29 06:19:50;;;;;;;4.50;3.05;;;;;;;;;;5056201;28;20390;-58
2023/09/29 06:22:16;;;;;;;4.45;2.92;;;;;;;;;;5055761;28;20494;-58
2023/09/29 06:24:44;;;;;;;3.63;2.58;;;;;;;;;;5056140;28;20060;-58
2023/09/29 06:27:10;;;;;;;3.38;2.38;;;;;;;;;;5055996;28;20083;-58
2023/09/29 06:29:36;;;;;;;3.70;2.90;;;;;;;;;;5056155;28;20035;-58
2023/09/29 06:32:02;;;;;;;4.50;2.92;;;;;;;;;;5055629;28;20017;-58
2023/09/29 06:34:28;;;;;;;4.28;2.80;;;;;;;;;;5055389;28;20114;-58
2023/09/29 06:36:54;;;;;;;7.28;3.08;;;;;;;;;;5056279;28;20025;-58
2023/09/29 06:39:20;;;;;;;4.55;3.13;;;;;;;;;;5055867;28;20425;-58
2023/09/29 06:41:46;;;;;;;4.07;2.63;;;;;;;;;;5055987;28;20407;-58
2023/09/29 06:44:11;;;;;;;3.60;3.03;;;;;;;;;;5055417;28;20359;-58
2023/09/29 06:46:37;;;;;;;5.78;2.75;;;;;;;;;;5055453;28;20116;-58
2023/09/29 06:49:03;;;;;;;5.28;2.85;;;;;;;;;;5055369;28;20076;-58
2023/09/29 06:51:29;;;;;;;3.70;2.53;;;;;;;;;;5055327;28;20021;-58
2023/09/29 06:53:55;;;;;;;4.15;2.50;;;;;;;;;;5055148;28;20025;-58
2023/09/29 06:56:21;;;;;;;5.43;3.13;;;;;;;;;;5054818;28;20029;-58
2023/09/29 06:58:47;;;;;;;4.03;2.72;;;;;;;;;;5055094;28;20031;-58
2023/09/29 07:01:13;;;;;;;3.85;2.50;;;;;;;;;;5055643;28;20025;-58
2023/09/29 07:03:40;;;;;;;4.78;3.38;;;;;;;;;;5055485;28;20075;-58
2023/09/29 07:06:05;;;;;;;8.07;2.97;;;;;;;;;;5054865;28;20036;-58
2023/09/29 07:08:32;;;;;;;4.57;2.20;;;;;;;;;;5054821;28;20401;-59
2023/09/29 07:10:58;;;;;;;4.13;2.63;;;;;;;;;;5055432;28;20067;-58
2023/09/29 07:13:25;;;;;;;3.05;2.25;;;;;;;;;;5054782;28;20021;-59
2023/09/29 07:15:51;;;;;;;4.68;3.05;;;;;;;;;;5054424;28;20501;-58
2023/09/29 07:18:17;;;;;;;3.30;2.47;;;;;;;;;;5055227;28;20031;-58
2023/09/29 07:20:44;;;;;;;5.10;3.00;;;;;;;;;;5055238;28;20044;-58
2023/09/29 07:23:09;;;;;;;4.72;3.05;;;;;;;;;;5053840;28;20017;-58
2023/09/29 07:25:39;;;;;;;5.57;3.30;;;;;;;;;;5054301;28;20032;-58
2023/09/29 07:28:13;;;;;;;4.72;3.08;;;;;;;;;;5055177;28;20033;-58
2023/09/29 07:30:39;;;;;;;4.70;2.65;;;;;;;;;;5055055;28;20176;-58
2023/09/29 07:33:05;;;;;;;5.93;3.50;;;;;;;;;;5054418;28;20442;-58
2023/09/29 07:35:31;;;;;;;6.35;4.43;;;;;;;;;;5053893;28;20075;-58
2023/09/29 07:37:58;;;;;;;5.03;3.45;;;;;;;;;;5054192;28;20063;-58
2023/09/29 07:40:24;;;;;;;4.15;2.85;;;;;;;;;;5054440;28;20021;-58
2023/09/29 07:42:50;;;;;;;4.70;3.05;;;;;;;;;;5054101;28;20056;-58
2023/09/29 07:45:17;;;;;;;4.18;2.60;;;;;;;;;;5054451;28;20076;-58
2023/09/29 07:47:43;;;;;;;5.07;3.00;;;;;;;;;;5054105;28;20352;-58
2023/09/29 07:50:09;;;;;;;6.50;3.28;;;;;;;;;;5054477;28;20021;-58
2023/09/29 07:52:37;;;;;;;4.13;3.00;;;;;;;;;;5054031;28;20025;-58
2023/09/29 07:55:04;;;;;;;4.20;3.00;;;;;;;;;;5054157;28;20025;-58
2023/09/29 07:57:30;;;;;;;3.90;3.10;;;;;;;;;;5053953;28;20021;-58
2023/09/29 07:59:56;;;;;;;3.70;3.10;;;;;;;;;;5054296;28;20059;-58
2023/09/29 08:02:22;;;;;;;4.47;2.97;;;;;;;;;;5053949;28;20060;-58
2023/09/29 08:04:49;;;;;;;5.60;3.72;;;;;;;;;;5053862;28;20025;-58
2023/09/29 08:07:15;;;;;;;4.70;3.35;;;;;;;;;;5053807;28;20040;-58
2023/09/29 08:09:41;;;;;;;4.70;3.28;;;;;;;;;;5054631;28;20116;-58
2023/09/29 08:12:07;;;;;;;6.53;3.47;;;;;;;;;;5054002;28;20150;-58
2023/09/29 08:14:33;;;;;;;4.13;3.40;;;;;;;;;;5053749;28;20029;-58
2023/09/29 08:16:59;;;;;;;6.38;3.95;;;;;;;;;;5053517;28;20025;-58
2023/09/29 08:19:25;;;;;;;4.47;3.47;;;;;;;;;;5053461;28;20392;-58
2023/09/29 08:21:51;;;;;;;5.90;3.58;;;;;;;;;;5054125;28;20458;-59
2023/09/29 08:24:17;;;;;;;6.53;3.20;;;;;;;;;;5053635;28;20033;-58
2023/09/29 08:26:42;;;;;;;5.82;3.00;;;;;;;;;;5053510;28;20033;-58
2023/09/29 08:29:10;;;;;;;4.05;2.90;;;;;;;;;;5054248;28;20055;-58
2023/09/29 08:31:36;;;;;;;4.60;3.10;;;;;;;;;;5053567;28;20060;-58
2023/09/29 08:34:02;;;;;;;6.10;3.38;;;;;;;;;;5053122;28;20028;-58
2023/09/29 08:36:28;;;;;;;3.97;3.17;;;;;;;;;;5054303;28;20451;-58
2023/09/29 08:38:54;;;;;;;4.97;3.67;;;;;;;;;;5052987;28;20029;-58
2023/09/29 08:41:25;;;;;;;4.55;3.08;;;;;;;;;;5053741;28;20032;-58
2023/09/29 08:43:51;;;;;;;4.07;2.40;;;;;;;;;;5054014;28;20029;-59
2023/09/29 08:46:19;;;;;;;3.45;2.80;;;;;;;;;;5053417;28;20051;-59
2023/09/29 08:48:49;;;;;;;5.35;3.50;;;;;;;;;;5053400;28;20071;-58
2023/09/29 08:51:16;;;;;;;3.60;2.47;;;;;;;;;;5053509;28;20025;-58
2023/09/29 08:53:43;;;;;;;4.22;2.85;;;;;;;;;;5053648;28;20044;-59
2023/09/29 08:56:15;;;;;;;3.58;2.50;;;;;;;;;;5053314;28;20055;-59
2023/09/29 08:58:41;;;;;;;3.45;2.83;;;;;;;;;;5053855;28;20151;-58
2023/09/29 09:01:07;;;;;;;3.63;2.85;;;;;;;;;;5053352;28;20533;-59
2023/09/29 09:03:34;;;;;;;4.25;2.53;;;;;;;;;;5053252;28;20479;-58
2023/09/29 09:06:00;;;;;;;3.03;2.45;;;;;;;;;;5053250;28;20033;-59
2023/09/29 09:08:26;;;;;;;7.32;2.55;;;;;;;;;;5053166;28;20064;-59
2023/09/29 09:10:59;;;;;;;5.60;2.97;;;;;;;;;;5053781;28;20021;-59
2023/09/29 09:13:28;;;;;;;4.45;2.70;;;;;;;;;;5053214;28;20510;-59
2023/09/29 09:15:56;;;;;;;4.20;2.40;;;;;;;;;;5053654;28;20087;-59
2023/09/29 09:18:24;;;;;;;4.10;2.70;;;;;;;;;;5053492;28;20173;-59
2023/09/29 09:20:53;;;;;;;3.80;2.17;;;;;;;;;;5053123;28;20029;-59
2023/09/29 09:23:19;;;;;;;6.03;2.50;;;;;;;;;;5053397;28;20032;-59
2023/09/29 09:25:45;;;;;;;8.40;2.83;;;;;;;;;;5053236;28;20409;-59
2023/09/29 09:28:18;;;;;;;5.68;2.38;;;;;;;;;;5053436;28;20370;-59
2023/09/29 09:30:44;;;;;;;2.53;1.67;;;;;;;;;;5053035;28;20459;-59
2023/09/29 09:33:38;;;;;;;3.15;2.47;;;;;;;;;;5052987;28;20394;-59
2023/09/29 09:36:06;;;;;;;3.65;2.33;;;;;;;;;;5053067;28;20153;-59
2023/09/29 09:38:32;;;;;;;3.83;2.78;;;;;;;;;;5052974;28;20053;-59
2023/09/29 09:40:59;;;;;;;3.60;2.03;;;;;;;;;;5053663;28;20360;-59
2023/09/29 09:43:28;;;;;;;2.78;1.98;;;;;;;;;;5052919;28;20475;-59
2023/09/29 09:45:56;;;;;;;3.53;2.25;;;;;;;;;;5054266;28;20040;-59
2023/09/29 09:48:24;;;;;;;3.85;2.38;;;;;;;;;;5056992;28;20026;-59
2023/09/29 09:50:51;;;;;;;3.50;2.03;;;;;;;;;;5057259;28;20036;-59
2023/09/29 09:53:18;;;;;;;3.63;2.30;;;;;;;;;;5056584;28;20566;-59
2023/09/29 09:55:50;;;;;;;3.58;2.13;;;;;;;;;;5056204;28;20483;-59
2023/09/29 09:58:17;;;;;;;3.72;1.90;;;;;;;;;;5056772;28;20021;-59
2023/09/29 10:00:46;;;;;;;3.72;1.85;;;;;;;;;;5056354;28;20044;-59
2023/09/29 10:03:13;;;;;;;2.75;1.95;;;;;;;;;;5056053;28;20033;-59
2023/09/29 10:05:44;;;;;;;3.33;1.88;;;;;;;;;;5055917;28;20454;-59
2023/09/29 10:08:10;;;;;;;4.82;2.42;;;;;;;;;;5056009;28;20060;-59
2023/09/29 10:10:42;;;;;;;3.17;2.35;;;;;;;;;;5057191;28;20074;-59
2023/09/29 10:13:15;;;;;;;2.17;1.75;;;;;;;;;;5055956;28;20033;-59
2023/09/29 10:15:41;;;;;;;3.28;1.80;;;;;;;;;;5056494;28;20033;-59
2023/09/29 10:18:15;;;;;;;3.15;1.98;;;;;;;;;;5056415;28;20059;-59
2023/09/29 10:20:41;;;;;;;2.20;1.50;;;;;;;;;;5055960;28;20083;-59
2023/09/29 10:23:08;;;;;;;8.52;2.13;;;;;;;;;;5055309;28;20052;-59
2023/09/29 10:25:36;;;;;;;4.22;2.20;;;;;;;;;;5056420;28;20131;-59
2023/09/29 10:28:06;;;;;;;8.63;2.05;;;;;;;;;;5055785;28;20049;-59
2023/09/29 10:30:32;;;;;;;3.50;1.95;;;;;;;;;;5056227;28;20100;-59
2023/09/29 10:33:11;;;;;;;3.20;2.20;;;;;;;;;;5055644;28;20025;-59
2023/09/29 10:35:44;;;;;;;4.50;1.83;;;;;;;;;;5055435;28;20427;-59
2023/09/29 10:38:12;;;;;;;3.92;1.77;;;;;;;;;;5056019;28;20027;-59
2023/09/29 10:40:38;;;;;;;6.90;2.25;;;;;;;;;;5055781;28;20083;-59
2023/09/29 10:43:05;;;;;;;3.65;1.70;;;;;;;;;;5055218;28;20105;-59
2023/09/29 10:45:36;;;;;;;2.80;2.10;;;;;;;;;;5055256;28;20485;-59
2023/09/29 10:48:05;;;;;;;3.28;1.80;;;;;;;;;;5055899;28;20029;-59
2023/09/29 10:50:38;;;;;;;3.00;1.87;;;;;;;;;;5054970;28;20033;-59
2023/09/29 10:53:04;;;;;;;11.90;2.65;;;;;;;;;;5055864;28;20078;-59
2023/09/29 10:55:30;;;;;;;4.55;2.05;;;;;;;;;;5055191;28;20098;-59
2023/09/29 10:58:00;;;;;;;3.03;1.88;;;;;;;;;;5055058;28;20459;-59
2023/09/29 11:00:26;;;;;;;3.15;2.20;;;;;;;;;;5055703;28;20031;-59
2023/09/29 11:02:52;;;;;;;2.67;1.95;;;;;;;;;;5055116;28;20358;-59
2023/09/29 11:05:19;;;;;;;3.35;2.40;;;;;;;;;;5054988;28;20036;-59
2023/09/29 11:07:45;;;;;;;3.20;2.17;;;;;;;;;;5055033;28;20366;-59
2023/09/29 11:10:12;;;;;;;2.60;1.75;;;;;;;;;;5055301;28;20024;-59
2023/09/29 11:12:40;;;;;;;3.05;2.30;;;;;;;;;;5054840;28;20040;-59
2023/09/29 11:15:08;;;;;;;2.97;2.03;;;;;;;;;;5055593;28;20018;-59
2023/09/29 11:17:45;;;;;;;3.50;2.17;;;;;;;;;;5054798;28;20025;-59
2023/09/29 11:20:29;;;;;;;4.60;2.45;;;;;;;;;;5055023;28;20039;-59
2023/09/29 11:22:59;;;;;;;4.50;2.65;;;;;;;;;;5055250;28;20027;-59
2023/09/29 11:25:25;;;;;;;4.18;2.03;;;;;;;;;;5054573;28;20370;-59
2023/09/29 11:27:52;;;;;;;5.35;2.38;;;;;;;;;;5054916;28;20023;-59
2023/09/29 11:30:20;;;;;;;3.85;2.75;;;;;;;;;;5054501;28;20036;-59
2023/09/29 11:32:47;;;;;;;5.47;2.13;;;;;;;;;;5054536;28;20032;-59
2023/09/29 11:35:15;;;;;;;4.10;2.47;;;;;;;;;;5054268;28;20059;-59
2023/09/29 11:37:43;;;;;;;4.15;2.38;;;;;;;;;;5054928;28;20076;-59
2023/09/29 11:40:12;;;;;;;7.30;2.20;;;;;;;;;;5054913;28;20052;-59
2023/09/29 11:42:39;;;;;;;5.07;2.55;;;;;;;;;;5054328;28;20021;-59
2023/09/29 11:45:08;;;;;;;4.95;2.42;;;;;;;;;;5054253;28;20102;-59
2023/09/29 11:47:34;;;;;;;3.38;1.90;;;;;;;;;;5054229;28;20052;-59
2023/09/29 11:50:00;;;;;;;2.63;1.90;;;;;;;;;;5054571;28;20029;-59
2023/09/29 11:52:26;;;;;;;2.90;2.25;;;;;;;;;;5054527;28;20477;-59
2023/09/29 11:54:52;;;;;;;2.67;1.95;;;;;;;;;;5053724;28;20459;-59
2023/09/29 11:57:18;;;;;;;3.20;2.55;;;;;;;;;;5054020;28;20055;-59
2023/09/29 11:59:44;;;;;;;3.42;2.22;;;;;;;;;;5054621;28;20025;-59
2023/09/29 12:02:10;;;;;;;3.10;2.30;;;;;;;;;;5053989;28;20071;-59
2023/09/29 12:04:36;;;;;;;3.45;2.45;;;;;;;;;;5053892;28;20045;-59
2023/09/29 12:07:04;;;;;;;3.50;2.55;;;;;;;;;;5053740;28;20064;-59
2023/09/29 12:09:30;;;;;;;6.57;2.85;;;;;;;;;;5053780;28;20021;-59
2023/09/29 12:12:00;;;;;;;3.63;2.35;;;;;;;;;;5054289;28;20024;-59
2023/09/29 12:14:26;;;;;;;3.30;2.38;;;;;;;;;;5053782;28;20108;-59
2023/09/29 12:16:53;;;;;;;3.92;2.25;;;;;;;;;;5053484;28;20577;-59
2023/09/29 12:19:20;;;;;;;5.28;2.60;;;;;;;;;;5053721;28;20025;-59
2023/09/29 12:21:47;;;;;;;3.13;2.22;;;;;;;;;;5053849;28;20032;-59
2023/09/29 12:24:13;;;;;;;3.05;2.17;;;;;;;;;;5053889;28;20390;-59
2023/09/29 12:26:45;;;;;;;3.17;2.03;;;;;;;;;;5053597;28;20040;-58
2023/09/29 12:29:11;;;;;;;4.55;2.72;;;;;;;;;;5053868;28;20036;-59
2023/09/29 12:31:37;;;;;;;3.10;2.20;;;;;;;;;;5053505;28;20455;-59
2023/09/29 12:34:04;;;;;;;2.35;1.83;;;;;;;;;;5054200;28;20025;-59
2023/09/29 12:36:30;;;;;;;3.58;2.13;;;;;;;;;;5053489;28;20052;-59
2023/09/29 12:38:56;;;;;;;7.65;2.38;;;;;;;;;;5053374;28;20366;-59
2023/09/29 12:41:22;;;;;;;3.80;2.05;;;;;;;;;;5053590;28;20021;-59
2023/09/29 12:43:48;;;;;;;4.20;1.95;;;;;;;;;;5053896;28;20025;-59
2023/09/29 12:46:14;;;;;;;3.58;2.08;;;;;;;;;;5053877;28;20040;-59
2023/09/29 12:48:40;;;;;;;3.25;2.28;;;;;;;;;;5053449;28;20025;-59
2023/09/29 12:51:07;;;;;;;3.30;2.05;;;;;;;;;;5053946;28;20021;-59
2023/09/29 12:53:32;;;;;;;9.93;2.80;;;;;;;;;;5053229;28;20070;-59
2023/09/29 12:55:58;;;;;;;2.35;1.88;;;;;;;;;;5053216;28;20112;-59
2023/09/29 12:58:24;;;;;;;3.10;1.80;;;;;;;;;;5053529;28;20060;-59
2023/09/29 13:00:51;;;;;;;2.90;2.00;;;;;;;;;;5053591;28;20028;-59
2023/09/29 13:03:17;;;;;;;2.58;1.90;;;;;;;;;;5053183;28;20021;-59
2023/09/29 13:05:45;;;;;;;3.55;2.00;;;;;;;;;;5053180;28;20167;-59
2023/09/29 13:08:11;;;;;;;3.08;2.17;;;;;;;;;;5052711;28;20494;-59
2023/09/29 13:10:37;;;;;;;3.03;1.98;;;;;;;;;;5053479;28;20025;-59
2023/09/29 13:13:04;;;;;;;6.75;2.78;;;;;;;;;;5052955;28;20040;-59
2023/09/29 13:15:31;;;;;;;4.38;2.20;;;;;;;;;;5053328;28;20047;-59
2023/09/29 13:17:57;;;;;;;3.60;2.00;;;;;;;;;;5052753;28;20025;-59
2023/09/29 13:20:23;;;;;;;2.60;1.88;;;;;;;;;;5054208;28;20151;-59
2023/09/29 13:22:50;;;;;;;2.63;1.83;;;;;;;;;;5057197;28;20013;-59
2023/09/29 13:25:16;;;;;;;3.80;2.47;;;;;;;;;;5057276;28;20036;-59
2023/09/29 13:27:42;;;;;;;2.50;1.75;;;;;;;;;;5056543;28;20482;-59
2023/09/29 13:30:09;;;;;;;2.90;2.08;;;;;;;;;;5057058;28;20063;-59
2023/09/29 13:32:35;;;;;;;3.53;2.25;;;;;;;;;;5056775;28;20471;-59
2023/09/29 13:35:01;;;;;;;3.13;2.35;;;;;;;;;;5056709;28;20068;-59
2023/09/29 13:37:28;;;;;;;7.72;2.05;;;;;;;;;;5056106;28;20025;-59
2023/09/29 13:39:56;;;;;;;2.30;1.58;;;;;;;;;;5056963;28;20021;-59
2023/09/29 13:42:23;;;;;;;2.85;1.73;;;;;;;;;;5057295;28;20031;-59
2023/09/29 13:44:48;;;;;;;2.45;1.55;;;;;;;;;;5056587;28;20025;-59
2023/09/29 13:47:14;;;;;;;2.42;1.75;;;;;;;;;;5056417;28;20087;-59
2023/09/29 13:49:40;;;;;;;2.83;1.67;;;;;;;;;;5056791;28;20021;-59
2023/09/29 13:52:06;;;;;;;2.38;1.45;;;;;;;;;;5057438;28;20110;-59
2023/09/29 13:54:32;;;;;;;2.38;1.48;;;;;;;;;;5056442;28;20017;-59
2023/09/29 13:56:59;;;;;;;2.65;1.80;;;;;;;;;;5057066;28;20399;-59
2023/09/29 13:59:25;;;;;;;2.95;1.77;;;;;;;;;;5056140;28;20055;-59
2023/09/29 14:01:51;;;;;;;2.80;1.55;;;;;;;;;;5056183;28;20116;-59
2023/09/29 14:04:17;;;;;;;5.10;1.90;;;;;;;;;;5056142;28;20048;-59
2023/09/29 14:06:43;;;;;;;2.92;2.15;;;;;;;;;;5056293;28;20081;-59
2023/09/29 14:09:12;;;;;;;2.58;1.65;;;;;;;;;;5056405;28;20032;-59
2023/09/29 14:11:38;;;;;;;3.42;1.85;;;;;;;;;;5055768;28;20021;-59
2023/09/29 14:14:04;;;;;;;3.05;1.70;;;;;;;;;;5056029;28;20021;-59
2023/09/29 14:16:30;;;;;;;3.22;2.08;;;;;;;;;;5055757;28;20067;-59
2023/09/29 14:18:56;;;;;;;2.90;1.48;;;;;;;;;;5056295;28;20032;-59
2023/09/29 14:21:22;;;;;;;2.78;2.00;;;;;;;;;;5056101;28;20021;-59
2023/09/29 14:23:48;;;;;;;2.65;2.05;;;;;;;;;;5055544;28;20374;-59
2023/09/29 14:26:14;;;;;;;3.30;2.20;;;;;;;;;;5055658;28;20036;-59
2023/09/29 14:28:40;;;;;;;3.20;2.05;;;;;;;;;;5056216;28;20014;-59
2023/09/29 14:31:05;;;;;;;2.83;1.80;;;;;;;;;;5055526;28;20024;-59
2023/09/29 14:33:31;;;;;;;3.30;2.13;;;;;;;;;;5056037;28;20021;-59
2023/09/29 14:36:03;;;;;;;2.50;2.00;;;;;;;;;;5055157;28;20405;-59
2023/09/29 14:38:29;;;;;;;2.63;1.67;;;;;;;;;;5056217;28;20024;-59
2023/09/29 14:40:55;;;;;;;2.95;2.20;;;;;;;;;;5055823;28;20467;-59
2023/09/29 14:43:22;;;;;;;3.10;1.83;;;;;;;;;;5055373;28;20044;-59